Time;durP1;ratioP1;P1;durP2;ratioP2;P2;SDS_P1;SDS_P2;PMS_P1;PMS_P2;Temp;Humidity;BMP_temperature;BMP_pressure;BME280_temperature;BME280_humidity;BME280_pressure;Samples;Min_cycle;Max_cycle;Signal;HPM_P1;HPM_P2
2023/07/27 00:02:08;;;;;;;2.17;1.30;;;;;;;13.11;100.00;100263.16;5165072;28;20052;-77
2023/07/27 00:04:39;;;;;;;3.05;1.50;;;;;;;13.02;100.00;100268.84;5143751;28;20030;-76
2023/07/27 00:07:09;;;;;;;2.42;1.30;;;;;;;13.16;100.00;100264.63;5155539;28;20027;-77
2023/07/27 00:09:39;;;;;;;4.28;1.30;;;;;;;13.22;100.00;100259.03;5165336;28;20026;-77
2023/07/27 00:12:09;;;;;;;4.35;1.40;;;;;;;13.25;100.00;100264.13;5160866;28;20037;-76
2023/07/27 00:14:40;;;;;;;2.58;1.48;;;;;;;13.22;100.00;100256.41;5159709;28;20099;-77
2023/07/27 00:17:10;;;;;;;2.10;1.23;;;;;;;13.32;100.00;100254.16;5159123;28;20019;-74
2023/07/27 00:19:40;;;;;;;7.80;1.40;;;;;;;13.14;100.00;100255.97;5158405;28;20400;-76
2023/07/27 00:22:10;;;;;;;1.65;1.10;;;;;;;13.21;100.00;100261.78;5159835;28;20031;-76
2023/07/27 00:24:41;;;;;;;2.97;1.48;;;;;;;13.12;100.00;100254.34;5160028;28;20037;-76
2023/07/27 00:27:11;;;;;;;1.98;1.17;;;;;;;12.99;100.00;100262.00;5151099;28;20490;-76
2023/07/27 00:29:41;;;;;;;5.30;1.60;;;;;;;12.96;100.00;100258.66;5160616;28;20026;-76
2023/07/27 00:32:12;;;;;;;1.98;1.25;;;;;;;12.96;100.00;100245.56;5161368;28;20037;-76
2023/07/27 00:34:42;;;;;;;3.47;1.42;;;;;;;12.86;100.00;100261.81;5158592;28;20022;-76
2023/07/27 00:37:13;;;;;;;1.73;1.13;;;;;;;12.79;100.00;100253.38;5153868;28;20010;-73
2023/07/27 00:39:43;;;;;;;3.13;1.35;;;;;;;12.87;100.00;100245.13;5159762;28;20026;-77
2023/07/27 00:42:13;;;;;;;2.42;1.35;;;;;;;12.59;100.00;100244.78;5151191;28;20025;-76
2023/07/27 00:44:44;;;;;;;3.60;1.52;;;;;;;12.60;100.00;100246.53;5162924;28;20106;-76
2023/07/27 00:47:14;;;;;;;2.67;1.42;;;;;;;12.60;100.00;100247.34;5159917;28;20380;-76
2023/07/27 00:49:44;;;;;;;2.00;1.35;;;;;;;12.62;100.00;100240.25;5149354;28;20018;-76
2023/07/27 00:52:15;;;;;;;3.95;1.50;;;;;;;12.79;100.00;100235.03;5157473;28;20417;-76
2023/07/27 00:54:45;;;;;;;2.72;1.48;;;;;;;12.64;100.00;100227.91;5159775;28;20491;-76
2023/07/27 00:57:17;;;;;;;2.67;1.45;;;;;;;12.56;100.00;100227.47;5156973;28;20037;-76
2023/07/27 00:59:47;;;;;;;3.97;1.40;;;;;;;12.50;100.00;100227.75;5154577;28;20042;-77
2023/07/27 01:02:17;;;;;;;5.70;1.70;;;;;;;12.39;100.00;100226.56;5145493;28;20474;-76
2023/07/27 01:04:48;;;;;;;2.88;1.60;;;;;;;12.48;100.00;100215.66;5159402;28;20114;-73
2023/07/27 01:07:18;;;;;;;5.65;1.65;;;;;;;12.27;100.00;100225.38;5167078;28;20405;-74
2023/07/27 01:09:48;;;;;;;3.78;1.58;;;;;;;12.19;100.00;100224.94;5159491;28;20469;-74
2023/07/27 01:12:26;;;;;;;3.40;1.60;;;;;;;12.17;100.00;100220.66;5177983;28;20034;-76
2023/07/27 01:15:09;;;;;;;6.03;1.60;;;;;;;12.17;100.00;100218.91;5160712;28;20095;-76
2023/07/27 01:17:50;;;;;;;4.38;1.80;;;;;;;12.05;100.00;100222.09;5157374;28;20022;-76
2023/07/27 01:20:32;;;;;;;3.20;1.58;;;;;;;12.00;100.00;100210.13;5156706;28;20030;-76
2023/07/27 01:23:33;;;;;;;2.53;1.55;;;;;;;11.94;100.00;100213.88;5169951;28;20028;-76
2023/07/27 01:26:48;;;;;;;3.15;1.40;;;;;;;11.92;100.00;100205.25;5160339;28;20030;-76
2023/07/27 01:29:39;;;;;;;5.30;1.52;;;;;;;11.81;100.00;100210.13;5168342;28;21466;-76
2023/07/27 01:32:10;;;;;;;4.25;1.60;;;;;;;11.86;100.00;100200.31;5174333;28;20037;-76
2023/07/27 01:34:46;;;;;;;5.57;1.60;;;;;;;11.81;100.00;100197.03;5162975;28;20031;-75
2023/07/27 01:37:17;;;;;;;5.20;1.80;;;;;;;11.90;100.00;100196.63;5157021;28;20030;-76
2023/07/27 01:39:51;;;;;;;3.67;1.88;;;;;;;11.90;100.00;100193.16;5152000;28;20035;-73
2023/07/27 01:42:23;;;;;;;4.63;1.90;;;;;;;11.88;100.00;100187.13;5160279;28;20041;-77
2023/07/27 01:44:55;;;;;;;3.10;1.60;;;;;;;11.75;100.00;100181.63;5156336;28;20058;-76
2023/07/27 01:47:27;;;;;;;4.50;1.85;;;;;;;11.80;100.00;100186.66;5152326;28;20709;-76
2023/07/27 01:49:59;;;;;;;3.40;1.80;;;;;;;11.87;100.00;100190.69;5158316;28;20040;-76
2023/07/27 01:52:29;;;;;;;3.88;1.90;;;;;;;12.04;100.00;100186.34;5166256;28;20085;-76
2023/07/27 01:55:00;;;;;;;4.72;1.92;;;;;;;12.12;100.00;100171.09;5157539;28;20038;-73
2023/07/27 01:57:31;;;;;;;3.50;1.83;;;;;;;12.12;100.00;100171.09;5161837;28;20038;-77
2023/07/27 02:00:03;;;;;;;6.13;2.13;;;;;;;12.22;100.00;100167.13;5154030;28;20498;-75
2023/07/27 02:02:34;;;;;;;3.40;1.70;;;;;;;12.12;100.00;100173.72;5157674;28;20384;-76
2023/07/27 02:05:04;;;;;;;3.20;1.92;;;;;;;12.17;100.00;100168.28;5157203;28;20076;-74
2023/07/27 02:07:35;;;;;;;4.00;1.83;;;;;;;12.07;100.00;100156.53;5153828;28;20347;-77
2023/07/27 02:10:07;;;;;;;3.67;1.90;;;;;;;11.94;100.00;100158.91;5158760;28;20495;-76
2023/07/27 02:12:44;;;;;;;3.45;1.83;;;;;;;11.92;100.00;100158.13;5150489;28;20122;-76
2023/07/27 02:15:20;;;;;;;3.90;1.88;;;;;;;12.02;100.00;100154.16;5155804;28;20046;-76
2023/07/27 02:18:02;;;;;;;5.78;1.80;;;;;;;11.91;100.00;100147.72;5162604;28;20121;-76
2023/07/27 02:20:35;;;;;;;3.75;1.90;;;;;;;11.89;100.00;100145.19;5157744;28;20068;-76
2023/07/27 02:23:07;;;;;;;4.30;1.95;;;;;;;12.05;100.00;100151.38;5157276;28;20076;-74
2023/07/27 02:25:38;;;;;;;4.13;1.90;;;;;;;12.07;100.00;100149.53;5154050;28;20127;-77
2023/07/27 02:28:10;;;;;;;5.43;2.10;;;;;;;12.01;100.00;100152.47;5152651;28;20034;-76
2023/07/27 02:30:40;;;;;;;3.33;1.60;;;;;;;12.19;100.00;100148.94;5155088;28;20030;-76
2023/07/27 02:33:11;;;;;;;4.07;1.90;;;;;;;12.17;100.00;100142.94;5157286;28;20354;-77
2023/07/27 02:35:41;;;;;;;4.15;2.03;;;;;;;12.19;100.00;100135.84;5153557;28;20171;-73
2023/07/27 02:38:11;;;;;;;3.10;1.65;;;;;;;12.18;100.00;100136.78;5155166;28;20034;-77
2023/07/27 02:40:42;;;;;;;5.95;2.33;;;;;;;12.27;100.00;100136.31;5157788;28;20539;-76
2023/07/27 02:43:12;;;;;;;4.07;2.10;;;;;;;12.42;100.00;100132.94;5150817;28;20033;-76
2023/07/27 02:45:43;;;;;;;6.00;2.17;;;;;;;12.43;100.00;100134.63;5159491;28;20030;-76
2023/07/27 02:48:13;;;;;;;4.72;2.50;;;;;;;12.52;100.00;100138.56;5149557;28;20038;-77
2023/07/27 02:50:50;;;;;;;4.88;2.17;;;;;;;12.64;100.00;100132.69;5163544;28;20034;-76
2023/07/27 02:53:20;;;;;;;5.10;2.42;;;;;;;12.66;100.00;100123.81;5156735;28;20435;-77
2023/07/27 02:55:59;;;;;;;4.45;1.90;;;;;;;12.71;100.00;100124.44;5154431;28;20022;-76
2023/07/27 02:58:29;;;;;;;4.25;2.30;;;;;;;12.77;100.00;100120.66;5162947;28;20558;-76
2023/07/27 03:01:02;;;;;;;6.28;2.83;;;;;;;12.76;100.00;100117.19;5153813;28;20117;-77
2023/07/27 03:03:32;;;;;;;5.13;2.30;;;;;;;12.70;100.00;100124.50;5152425;28;21022;-76
2023/07/27 03:06:03;;;;;;;5.25;2.30;;;;;;;12.65;100.00;100116.03;5153949;28;20039;-76
2023/07/27 03:08:33;;;;;;;4.90;2.22;;;;;;;12.64;100.00;100112.56;5171823;28;20391;-77
2023/07/27 03:11:04;;;;;;;5.18;2.22;;;;;;;12.63;100.00;100113.50;5157536;28;20029;-77
2023/07/27 03:13:34;;;;;;;4.82;2.65;;;;;;;12.61;100.00;100117.97;5156856;28;20129;-77
2023/07/27 03:16:05;;;;;;;5.55;2.30;;;;;;;12.70;100.00;100107.03;5164419;28;20464;-76
2023/07/27 03:18:35;;;;;;;4.30;2.47;;;;;;;12.74;100.00;100105.94;5155642;28;20030;-77
2023/07/27 03:21:05;;;;;;;5.00;2.10;;;;;;;12.77;100.00;100108.38;5170784;28;20430;-76
2023/07/27 03:23:36;;;;;;;5.20;2.45;;;;;;;12.72;100.00;100113.03;5167369;28;20027;-76
2023/07/27 03:26:12;;;;;;;4.72;2.50;;;;;;;12.72;100.00;100110.41;5162380;28;20493;-76
2023/07/27 03:28:43;;;;;;;5.07;2.35;;;;;;;12.74;100.00;100110.31;5174440;28;20391;-77
2023/07/27 03:31:23;;;;;;;4.10;2.65;;;;;;;12.81;100.00;100104.66;5163009;28;20030;-74
2023/07/27 03:33:54;;;;;;;6.32;2.50;;;;;;;12.88;100.00;100111.31;5155225;28;20025;-77
2023/07/27 03:36:24;;;;;;;6.45;3.03;;;;;;;13.04;100.00;100102.56;5151245;28;20404;-77
2023/07/27 03:38:54;;;;;;;5.32;2.42;;;;;;;13.16;100.00;100103.69;5157103;28;20030;-76
2023/07/27 03:41:24;;;;;;;4.43;2.20;;;;;;;13.16;100.00;100098.44;5159562;28;20107;-76
2023/07/27 03:43:55;;;;;;;6.25;2.33;;;;;;;13.16;100.00;100099.31;5166385;28;20053;-76
2023/07/27 03:46:25;;;;;;;4.05;2.25;;;;;;;13.20;100.00;100089.50;5156357;28;20050;-76
2023/07/27 03:48:55;;;;;;;6.75;2.25;;;;;;;13.32;100.00;100094.06;5158438;28;20027;-77
2023/07/27 03:51:25;;;;;;;4.75;2.22;;;;;;;13.39;100.00;100087.56;5166274;28;20075;-76
2023/07/27 03:53:56;;;;;;;6.10;2.25;;;;;;;13.43;100.00;100078.59;5167577;28;20037;-75
2023/07/27 03:56:26;;;;;;;4.35;2.47;;;;;;;13.34;100.00;100076.44;5157278;28;20061;-77
2023/07/27 03:58:56;;;;;;;6.80;2.45;;;;;;;13.43;100.00;100070.72;5158199;28;20037;-77
2023/07/27 04:01:27;;;;;;;4.10;2.05;;;;;;;13.39;100.00;100071.81;5165948;28;20410;-77
2023/07/27 04:03:57;;;;;;;4.90;2.40;;;;;;;13.46;100.00;100070.53;5168224;28;20118;-77
2023/07/27 04:06:27;;;;;;;7.32;3.35;;;;;;;13.40;100.00;100066.47;5157176;28;20041;-77
2023/07/27 04:08:57;;;;;;;4.20;2.70;;;;;;;13.49;100.00;100059.88;5158754;28;20522;-77
2023/07/27 04:11:32;;;;;;;5.00;2.53;;;;;;;13.57;100.00;100066.38;5181068;28;20102;-77
2023/07/27 04:14:02;;;;;;;4.95;2.72;;;;;;;13.55;100.00;100067.41;5163487;28;20413;-74
2023/07/27 04:16:32;;;;;;;5.15;2.60;;;;;;;13.62;100.00;100067.00;5173874;28;20034;-77
2023/07/27 04:19:03;;;;;;;4.45;2.60;;;;;;;13.69;100.00;100062.22;5158085;28;20042;-76
2023/07/27 04:21:33;;;;;;;7.38;2.58;;;;;;;13.68;100.00;100056.13;5146928;28;20538;-77
2023/07/27 04:24:04;;;;;;;7.25;2.80;;;;;;;13.73;100.00;100051.47;5161140;28;20049;-76
2023/07/27 04:26:34;;;;;;;5.85;2.50;;;;;;;13.84;100.00;100042.97;5160538;28;20540;-76
2023/07/27 04:29:04;;;;;;;4.93;2.88;;;;;;;13.84;100.00;100037.72;5162091;28;20499;-77
2023/07/27 04:31:34;;;;;;;6.78;2.72;;;;;;;13.89;100.00;100033.06;5167746;28;20022;-76
2023/07/27 04:34:05;;;;;;;5.85;2.78;;;;;;;13.93;100.00;100026.69;5164878;28;20038;-76
2023/07/27 04:36:35;;;;;;;5.28;2.70;;;;;;;13.97;100.00;100023.81;5177326;28;20036;-76
2023/07/27 04:39:05;;;;;;;6.13;2.85;;;;;;;14.01;100.00;100032.34;5161829;28;20075;-76
2023/07/27 04:41:36;;;;;;;3.95;2.60;;;;;;;14.12;100.00;100037.81;5168784;28;20472;-77
2023/07/27 04:44:06;;;;;;;5.88;2.30;;;;;;;14.11;100.00;100036.97;5162076;28;20038;-77
2023/07/27 04:46:36;;;;;;;4.90;2.53;;;;;;;14.09;100.00;100024.88;5165980;28;20137;-77
2023/07/27 04:49:07;;;;;;;5.55;2.60;;;;;;;14.16;100.00;100015.72;5155846;28;20916;-77
2023/07/27 04:51:37;;;;;;;5.30;2.92;;;;;;;14.21;100.00;100017.13;5168710;28;20034;-77
2023/07/27 04:54:07;;;;;;;4.20;2.72;;;;;;;14.27;100.00;100021.19;5184335;28;20034;-76
2023/07/27 04:56:37;;;;;;;4.93;2.75;;;;;;;14.39;100.00;100020.47;5169407;28;20042;-77
2023/07/27 04:59:08;;;;;;;4.72;2.90;;;;;;;14.39;100.00;100018.66;5159926;28;20437;-77
2023/07/27 05:01:38;;;;;;;4.72;2.25;;;;;;;14.41;100.00;100015.97;5173316;28;20113;-77
2023/07/27 05:04:08;;;;;;;6.45;2.70;;;;;;;14.57;100.00;100014.09;5160167;28;20083;-73
2023/07/27 05:06:39;;;;;;;5.88;2.70;;;;;;;14.60;100.00;100013.91;5181261;28;20022;-77
2023/07/27 05:09:09;;;;;;;6.45;2.60;;;;;;;14.71;100.00;100016.72;5177915;28;20061;-77
2023/07/27 05:11:40;;;;;;;4.38;2.53;;;;;;;14.77;100.00;100016.34;5159234;28;21355;-77
2023/07/27 05:14:10;;;;;;;4.18;2.40;;;;;;;14.70;100.00;100015.03;5169578;28;20228;-77
2023/07/27 05:16:40;;;;;;;3.85;2.30;;;;;;;14.89;100.00;100003.28;5167126;28;20667;-77
2023/07/27 05:19:11;;;;;;;4.13;2.30;;;;;;;15.00;100.00;99999.03;5166375;28;20033;-77
2023/07/27 05:21:41;;;;;;;4.57;2.47;;;;;;;15.11;100.00;100001.00;5157816;28;20103;-74
2023/07/27 05:24:11;;;;;;;4.63;2.55;;;;;;;15.08;100.00;99990.66;5171920;28;20037;-77
2023/07/27 05:26:43;;;;;;;4.20;2.40;;;;;;;15.14;100.00;99985.00;5161364;28;20536;-76
2023/07/27 05:29:13;;;;;;;4.30;2.45;;;;;;;15.24;100.00;99986.97;5159319;28;20489;-77
2023/07/27 05:31:46;;;;;;;5.30;2.40;;;;;;;15.17;100.00;99987.47;5157935;28;20041;-77
2023/07/27 05:34:17;;;;;;;5.85;2.60;;;;;;;15.10;100.00;99979.09;5158240;28;20051;-77
2023/07/27 05:36:47;;;;;;;4.40;2.30;;;;;;;15.24;100.00;99980.84;5175235;28;20482;-75
2023/07/27 05:39:17;;;;;;;4.70;2.30;;;;;;;15.32;100.00;99981.25;5171332;28;20056;-77
2023/07/27 05:41:47;;;;;;;5.82;2.58;;;;;;;15.37;100.00;99985.25;5160534;28;20030;-74
2023/07/27 05:44:18;;;;;;;4.20;2.30;;;;;;;15.34;100.00;99982.81;5174311;28;20117;-77
2023/07/27 05:46:53;;;;;;;6.68;2.60;;;;;;;15.32;100.00;99983.88;5164333;28;20026;-73
2023/07/27 05:49:26;;;;;;;6.43;2.25;;;;;;;15.36;100.00;99980.09;5182200;28;20024;-76
2023/07/27 05:51:56;;;;;;;5.60;2.85;;;;;;;15.34;100.00;99977.56;5164394;28;20292;-76
2023/07/27 05:54:27;;;;;;;5.97;2.70;;;;;;;15.40;100.00;99978.97;5156168;28;20034;-76
2023/07/27 05:56:57;;;;;;;4.72;2.45;;;;;;;15.48;100.00;99980.16;5176160;28;20507;-76
2023/07/27 05:59:27;;;;;;;5.82;2.38;;;;;;;15.53;100.00;99974.59;5157897;28;20091;-76
2023/07/27 06:01:58;;;;;;;5.35;2.40;;;;;;;15.61;100.00;99973.16;5167480;28;20058;-76
2023/07/27 06:04:28;;;;;;;6.65;2.50;;;;;;;15.65;100.00;99972.00;5168378;28;20046;-75
2023/07/27 06:06:59;;;;;;;5.07;2.20;;;;;;;15.69;100.00;99965.56;5174282;28;20034;-77
2023/07/27 06:09:29;;;;;;;7.57;2.72;;;;;;;15.78;100.00;99957.06;5171264;28;20032;-76
2023/07/27 06:11:59;;;;;;;3.28;1.73;;;;;;;15.84;100.00;99964.56;5162791;28;20040;-77
2023/07/27 06:14:30;;;;;;;3.65;1.80;;;;;;;15.80;100.00;99968.34;5165816;28;20026;-76
2023/07/27 06:17:00;;;;;;;5.00;2.20;;;;;;;15.81;100.00;99964.75;5173770;28;20254;-77
2023/07/27 06:19:30;;;;;;;5.45;2.10;;;;;;;15.92;100.00;99966.69;5169181;28;20188;-77
2023/07/27 06:22:01;;;;;;;4.38;2.15;;;;;;;15.95;100.00;99972.59;5168552;28;20039;-76
2023/07/27 06:24:31;;;;;;;3.35;2.03;;;;;;;15.97;100.00;99972.47;5171320;28;20390;-76
2023/07/27 06:27:01;;;;;;;4.75;1.90;;;;;;;15.98;100.00;99980.31;5160466;28;20121;-77
2023/07/27 06:29:32;;;;;;;2.95;1.85;;;;;;;16.07;100.00;99974.41;5164580;28;20790;-76
2023/07/27 06:32:02;;;;;;;6.53;1.90;;;;;;;16.06;100.00;99980.63;5169238;28;20544;-76
2023/07/27 06:34:32;;;;;;;4.10;1.88;;;;;;;15.87;100.00;99982.78;5162486;28;20270;-76
2023/07/27 06:37:03;;;;;;;6.50;1.88;;;;;;;15.82;100.00;99987.53;5174615;28;20082;-76
2023/07/27 06:39:33;;;;;;;5.53;1.80;;;;;;;15.98;100.00;99982.06;5172762;28;20042;-76
2023/07/27 06:42:04;;;;;;;3.92;1.88;;;;;;;16.02;100.00;99987.03;5170575;28;20384;-74
2023/07/27 06:44:34;;;;;;;3.33;1.95;;;;;;;16.04;100.00;99987.78;5160691;28;20027;-77
2023/07/27 06:47:04;;;;;;;3.42;2.13;;;;;;;16.06;100.00;99977.97;5173369;28;20030;-75
2023/07/27 06:49:34;;;;;;;4.28;2.17;;;;;;;16.20;100.00;99970.00;5155304;28;20023;-76
2023/07/27 06:52:08;;;;;;;3.33;1.90;;;;;;;16.37;100.00;99979.44;5156461;28;20061;-74
2023/07/27 06:54:39;;;;;;;6.32;2.08;;;;;;;16.52;100.00;99971.28;5155776;28;20102;-77
2023/07/27 06:57:11;;;;;;;4.53;1.88;;;;;;;16.49;100.00;99968.88;5164383;28;20400;-74
2023/07/27 06:59:42;;;;;;;5.03;2.17;;;;;;;16.56;100.00;99971.94;5153180;28;20018;-75
2023/07/27 07:02:13;;;;;;;4.10;2.20;;;;;;;16.61;100.00;99965.41;5175773;28;20026;-77
2023/07/27 07:04:43;;;;;;;2.85;1.63;;;;;;;16.78;100.00;99962.41;5156898;28;20396;-77
2023/07/27 07:07:20;;;;;;;3.72;1.80;;;;;;;16.69;100.00;99957.78;5163549;28;20084;-74
2023/07/27 07:09:52;;;;;;;3.22;1.65;;;;;;;16.84;100.00;99972.53;5158889;28;20060;-77
2023/07/27 07:12:22;;;;;;;3.40;1.70;;;;;;;16.93;100.00;99961.31;5165403;28;20030;-77
2023/07/27 07:14:52;;;;;;;3.10;1.70;;;;;;;17.01;100.00;99962.44;5163998;28;20038;-77
2023/07/27 07:17:23;;;;;;;4.05;2.25;;;;;;;17.21;100.00;99966.31;5170712;28;20109;-76
2023/07/27 07:19:53;;;;;;;8.25;1.73;;;;;;;17.27;100.00;99960.56;5159087;28;20030;-77
2023/07/27 07:22:23;;;;;;;4.05;1.80;;;;;;;17.44;100.00;99962.84;5179337;28;20028;-77
2023/07/27 07:24:54;;;;;;;5.40;2.20;;;;;;;17.53;100.00;99959.56;5158665;28;20034;-77
2023/07/27 07:27:24;;;;;;;2.60;1.30;;;;;;;17.78;100.00;99962.06;5168363;28;20484;-77
2023/07/27 07:29:54;;;;;;;4.18;1.42;;;;;;;18.09;100.00;99961.44;5159477;28;20038;-77
2023/07/27 07:32:25;;;;;;;4.57;1.73;;;;;;;18.11;97.09;99954.22;5163168;28;20527;-77
2023/07/27 07:34:55;;;;;;;3.22;1.70;;;;;;;18.09;95.25;99966.72;5159224;28;20034;-77
2023/07/27 07:37:25;;;;;;;2.17;1.15;;;;;;;18.07;96.00;99958.94;5157858;28;20021;-77
2023/07/27 07:39:55;;;;;;;2.78;1.55;;;;;;;17.91;95.39;99954.91;5167034;28;20560;-77
2023/07/27 07:42:26;;;;;;;3.80;1.85;;;;;;;17.87;93.82;99974.59;5165089;28;20547;-78
2023/07/27 07:44:56;;;;;;;3.03;1.48;;;;;;;18.01;94.11;99967.31;5170053;28;20121;-78
2023/07/27 07:47:27;;;;;;;3.72;1.50;;;;;;;18.07;92.58;99953.66;5205145;28;20027;-77
2023/07/27 07:49:58;;;;;;;3.15;1.40;;;;;;;17.96;93.73;99953.59;5163041;28;20018;-77
2023/07/27 07:52:28;;;;;;;4.55;1.27;;;;;;;17.97;94.36;99955.28;5160080;28;20034;-77
2023/07/27 07:54:59;;;;;;;5.97;1.70;;;;;;;17.98;93.63;99964.06;5149169;28;20034;-77
2023/07/27 07:57:29;;;;;;;2.78;1.60;;;;;;;18.01;93.14;99955.91;5167921;28;20035;-77
2023/07/27 07:59:59;;;;;;;4.32;1.40;;;;;;;17.95;94.97;99961.63;5161006;28;20023;-77
2023/07/27 08:02:30;;;;;;;3.70;1.70;;;;;;;17.78;96.51;99957.63;5170226;28;20039;-77
2023/07/27 08:05:00;;;;;;;7.13;1.92;;;;;;;17.78;96.63;99948.84;5167643;28;20586;-77
2023/07/27 08:07:30;;;;;;;3.53;1.70;;;;;;;17.62;96.39;99956.25;5197467;28;20127;-77
2023/07/27 08:10:02;;;;;;;3.55;1.70;;;;;;;17.68;96.12;99950.50;5166422;28;20782;-77
2023/07/27 08:12:33;;;;;;;5.72;1.80;;;;;;;17.68;95.61;99955.78;5156221;28;20035;-77
2023/07/27 08:15:03;;;;;;;3.50;1.65;;;;;;;17.69;99.50;99946.91;5160124;28;20030;-77
2023/07/27 08:17:35;;;;;;;3.05;1.50;;;;;;;17.58;100.00;99960.06;5186603;28;20065;-77
2023/07/27 08:20:05;;;;;;;3.42;1.50;;;;;;;17.35;100.00;99945.06;5168344;28;20037;-75
2023/07/27 08:22:37;;;;;;;3.95;1.70;;;;;;;17.28;100.00;99941.16;5167675;28;20035;-77
2023/07/27 08:25:07;;;;;;;4.30;1.70;;;;;;;17.39;100.00;99938.59;5161297;28;22039;-77
2023/07/27 08:27:38;;;;;;;5.07;1.70;;;;;;;17.04;100.00;99937.63;5166690;28;20041;-77
2023/07/27 08:30:08;;;;;;;2.45;1.50;;;;;;;17.05;100.00;99934.03;5157031;28;20026;-77
2023/07/27 08:32:40;;;;;;;3.17;1.60;;;;;;;17.11;100.00;99929.16;5157366;28;20382;-77
2023/07/27 08:35:10;;;;;;;3.15;1.70;;;;;;;17.17;100.00;99927.88;5167624;28;20038;-77
2023/07/27 08:37:40;;;;;;;7.80;1.65;;;;;;;17.17;100.00;99920.78;5156206;28;20072;-74
2023/07/27 08:40:11;;;;;;;3.67;1.77;;;;;;;17.46;100.00;99924.00;5170174;28;20031;-77
2023/07/27 08:42:43;;;;;;;3.60;1.80;;;;;;;17.52;100.00;99915.59;5159420;28;20452;-74
2023/07/27 08:45:15;;;;;;;3.38;1.73;;;;;;;17.44;100.00;99910.03;5155950;28;20468;-77
2023/07/27 08:47:48;;;;;;;3.90;1.73;;;;;;;17.70;100.00;99906.28;5163515;28;20339;-77
2023/07/27 08:50:19;;;;;;;4.20;1.88;;;;;;;17.70;100.00;99898.34;5143494;28;20042;-77
2023/07/27 08:52:50;;;;;;;4.63;2.00;;;;;;;17.68;100.00;99900.28;5157668;28;20033;-77
2023/07/27 08:55:21;;;;;;;3.75;2.10;;;;;;;17.52;100.00;99897.09;5157704;28;20030;-77
2023/07/27 08:57:51;;;;;;;3.33;1.83;;;;;;;17.75;100.00;99899.72;5141184;28;20019;-77
2023/07/27 09:00:21;;;;;;;5.93;1.90;;;;;;;17.85;100.00;99894.56;5167220;28;20599;-77
2023/07/27 09:02:52;;;;;;;4.07;1.88;;;;;;;17.89;100.00;99890.72;5156277;28;20036;-77
2023/07/27 09:05:36;;;;;;;5.43;1.92;;;;;;;17.71;100.00;99887.69;5166303;28;20419;-77
2023/07/27 09:08:09;;;;;;;4.70;1.90;;;;;;;17.56;100.00;99882.69;5165934;28;20555;-75
2023/07/27 09:10:41;;;;;;;4.28;2.10;;;;;;;17.58;100.00;99881.63;5159559;28;20152;-77
2023/07/27 09:13:12;;;;;;;4.93;1.98;;;;;;;17.52;100.00;99871.50;5158555;28;20113;-77
2023/07/27 09:15:44;;;;;;;4.05;1.70;;;;;;;17.68;100.00;99865.91;5155790;28;20444;-77
2023/07/27 09:18:14;;;;;;;4.93;1.83;;;;;;;17.89;100.00;99864.28;5168953;28;20155;-76
2023/07/27 09:20:45;;;;;;;4.10;1.60;;;;;;;17.88;100.00;99852.03;5159120;28;20470;-76
2023/07/27 09:23:19;;;;;;;4.82;2.10;;;;;;;17.91;100.00;99854.44;5158522;28;20027;-76
2023/07/27 09:25:54;;;;;;;3.33;1.70;;;;;;;18.24;100.00;99844.72;5158817;28;20026;-76
2023/07/27 09:28:28;;;;;;;3.25;1.35;;;;;;;18.36;100.00;99837.66;5155713;28;20065;-76
2023/07/27 09:31:00;;;;;;;4.82;1.90;;;;;;;18.34;100.00;99831.66;5159071;28;20030;-76
2023/07/27 09:33:31;;;;;;;4.25;1.73;;;;;;;18.27;100.00;99820.72;5163063;28;20028;-77
2023/07/27 09:36:03;;;;;;;4.18;1.67;;;;;;;18.44;100.00;99822.00;5161981;28;20709;-77
2023/07/27 09:38:33;;;;;;;4.28;1.50;;;;;;;18.26;100.00;99815.50;5160711;28;20034;-77
2023/07/27 09:41:08;;;;;;;3.28;1.50;;;;;;;18.19;100.00;99804.56;5157668;28;20492;-76
2023/07/27 09:43:38;;;;;;;4.45;1.77;;;;;;;18.16;100.00;99809.25;5149202;28;20262;-77
2023/07/27 09:46:09;;;;;;;3.78;1.80;;;;;;;18.12;100.00;99800.72;5137890;28;20022;-76
2023/07/27 09:48:39;;;;;;;3.95;1.48;;;;;;;18.14;100.00;99795.31;5185581;28;20496;-77
2023/07/27 09:51:10;;;;;;;3.95;1.50;;;;;;;17.88;100.00;99794.72;5159171;28;20033;-77
2023/07/27 09:53:42;;;;;;;2.85;1.42;;;;;;;18.02;100.00;99786.53;5158538;28;20106;-76
2023/07/27 09:56:15;;;;;;;3.92;1.70;;;;;;;18.10;100.00;99785.91;5171457;28;20030;-77
2023/07/27 09:58:46;;;;;;;4.88;1.70;;;;;;;18.10;100.00;99793.84;5150655;28;20083;-76
2023/07/27 10:01:17;;;;;;;4.78;1.80;;;;;;;18.00;100.00;99792.91;5153565;28;20487;-76
2023/07/27 10:03:47;;;;;;;3.72;1.50;;;;;;;18.16;100.00;99790.75;5155732;28;20030;-77
2023/07/27 10:06:18;;;;;;;3.97;1.58;;;;;;;18.27;100.00;99790.72;5198730;28;20052;-76
2023/07/27 10:08:49;;;;;;;4.30;1.60;;;;;;;18.36;100.00;99787.38;5126456;28;20246;-76
2023/07/27 10:11:52;;;;;;;3.17;1.50;;;;;;;18.44;100.00;99782.31;5016717;28;20405;-77
2023/07/27 10:14:25;;;;;;;2.67;1.45;;;;;;;18.31;100.00;99779.00;5135303;28;20048;-76
2023/07/27 10:17:09;;;;;;;4.85;1.75;;;;;;;18.47;100.00;99774.13;5138968;28;20031;-75
2023/07/27 10:19:49;;;;;;;2.65;1.60;;;;;;;18.45;100.00;99776.91;5142114;28;20100;-77
2023/07/27 10:22:19;;;;;;;6.43;1.58;;;;;;;18.39;100.00;99779.19;5144251;28;20065;-76
2023/07/27 10:24:52;;;;;;;5.03;1.70;;;;;;;18.28;100.00;99784.50;5135919;28;20023;-77
2023/07/27 10:27:23;;;;;;;4.43;1.77;;;;;;;18.09;100.00;99778.94;5134658;28;20066;-77
2023/07/27 10:30:08;;;;;;;2.72;1.58;;;;;;;17.89;100.00;99769.97;5137961;28;20472;-74
2023/07/27 10:32:38;;;;;;;3.30;1.60;;;;;;;17.82;100.00;99781.13;5137247;28;20295;-77
2023/07/27 10:35:09;;;;;;;3.22;1.80;;;;;;;17.76;100.00;99781.59;5126360;28;20487;-74
2023/07/27 10:37:55;;;;;;;3.13;1.40;;;;;;;17.78;100.00;99775.22;5133814;28;20049;-76
2023/07/27 10:40:26;;;;;;;3.50;1.52;;;;;;;17.66;100.00;99768.22;5135830;28;20031;-77
2023/07/27 10:42:58;;;;;;;3.42;1.50;;;;;;;17.64;100.00;99769.34;5127630;28;20050;-77
2023/07/27 10:45:28;;;;;;;4.30;1.98;;;;;;;17.53;100.00;99777.22;5133284;28;20105;-76
2023/07/27 10:47:58;;;;;;;4.50;2.08;;;;;;;17.39;100.00;99780.06;5132911;28;20425;-77
2023/07/27 10:50:29;;;;;;;3.50;2.20;;;;;;;17.31;100.00;99766.59;5137305;28;20031;-77
2023/07/27 10:52:59;;;;;;;3.97;1.90;;;;;;;17.12;100.00;99756.56;5124913;28;20458;-77
2023/07/27 10:55:37;;;;;;;4.47;2.15;;;;;;;17.01;100.00;99747.75;5133476;28;20507;-77
2023/07/27 10:58:10;;;;;;;6.18;2.42;;;;;;;17.00;100.00;99749.53;5138924;28;21140;-74
2023/07/27 11:00:42;;;;;;;5.35;2.22;;;;;;;16.94;100.00;99744.75;5134341;28;20361;-73
2023/07/27 11:03:13;;;;;;;4.55;2.22;;;;;;;16.82;100.00;99736.91;5132828;28;20500;-74
2023/07/27 11:06:01;;;;;;;5.35;2.17;;;;;;;16.68;100.00;99744.97;5128155;28;20110;-77
2023/07/27 11:08:36;;;;;;;4.78;2.42;;;;;;;16.77;100.00;99731.94;5136478;28;20082;-77
2023/07/27 11:11:33;;;;;;;4.20;2.22;;;;;;;16.80;100.00;99728.25;5152480;28;20029;-74
2023/07/27 11:14:05;;;;;;;6.40;2.20;;;;;;;16.88;100.00;99718.81;5143497;28;20068;-74
2023/07/27 11:16:39;;;;;;;5.10;2.30;;;;;;;16.88;100.00;99718.81;5137026;28;20214;-77
2023/07/27 11:19:10;;;;;;;5.95;2.65;;;;;;;16.92;100.00;99716.75;5135089;28;20341;-77
2023/07/27 11:21:40;;;;;;;3.65;2.45;;;;;;;16.78;100.00;99714.34;5136741;28;20160;-77
2023/07/27 11:24:15;;;;;;;5.18;2.50;;;;;;;16.77;100.00;99707.38;5136682;28;20043;-74
2023/07/27 11:26:46;;;;;;;6.50;2.47;;;;;;;16.91;100.00;99709.78;5143075;28;20034;-77
2023/07/27 11:29:17;;;;;;;6.43;2.90;;;;;;;16.84;100.00;99708.59;5134887;28;21461;-76
2023/07/27 11:32:00;;;;;;;4.68;2.50;;;;;;;16.71;100.00;99699.88;5140918;28;20105;-77
2023/07/27 11:34:30;;;;;;;7.75;3.00;;;;;;;16.81;100.00;99692.97;5136193;28;20127;-77
2023/07/27 11:37:01;;;;;;;5.72;2.80;;;;;;;16.79;100.00;99690.44;5125363;28;20035;-75
2023/07/27 11:39:31;;;;;;;7.18;2.97;;;;;;;16.86;100.00;99689.06;5139886;28;20041;-77
2023/07/27 11:42:09;;;;;;;5.57;2.60;;;;;;;16.96;100.00;99683.91;5145747;28;20031;-74
2023/07/27 11:44:39;;;;;;;5.13;2.75;;;;;;;16.88;100.00;99678.34;5141746;28;20508;-77